sensor_id;sensor_type;location;lat;lon;timestamp;P1;durP1;ratioP1;P2;durP2;ratioP2
65831;SDS011;52593;42.648;23.332;2023-06-22T00:00:51;11.87;;;7.07;;
65831;SDS011;52593;42.648;23.332;2023-06-22T00:03:18;15.77;;;7.97;;
65831;SDS011;52593;42.648;23.332;2023-06-22T00:05:44;15.50;;;8.05;;
65831;SDS011;52593;42.648;23.332;2023-06-22T00:08:10;13.95;;;7.93;;
65831;SDS011;52593;42.648;23.332;2023-06-22T00:10:36;14.50;;;7.47;;
65831;SDS011;52593;42.648;23.332;2023-06-22T00:13:01;16.33;;;7.63;;
65831;SDS011;52593;42.648;23.332;2023-06-22T00:15:27;14.50;;;7.57;;
65831;SDS011;52593;42.648;23.332;2023-06-22T00:17:53;14.80;;;8.00;;
65831;SDS011;52593;42.648;23.332;2023-06-22T00:20:18;14.95;;;7.97;;
65831;SDS011;52593;42.648;23.332;2023-06-22T00:22:44;13.60;;;7.63;;
65831;SDS011;52593;42.648;23.332;2023-06-22T00:25:10;16.13;;;8.13;;
65831;SDS011;52593;42.648;23.332;2023-06-22T00:27:36;14.07;;;7.87;;
65831;SDS011;52593;42.648;23.332;2023-06-22T00:30:02;16.53;;;8.67;;
65831;SDS011;52593;42.648;23.332;2023-06-22T00:32:27;13.63;;;8.60;;
65831;SDS011;52593;42.648;23.332;2023-06-22T00:34:53;14.77;;;8.75;;
65831;SDS011;52593;42.648;23.332;2023-06-22T00:37:18;17.57;;;8.83;;
65831;SDS011;52593;42.648;23.332;2023-06-22T00:39:44;15.77;;;8.43;;
65831;SDS011;52593;42.648;23.332;2023-06-22T00:42:09;16.40;;;9.07;;
65831;SDS011;52593;42.648;23.332;2023-06-22T00:44:35;14.23;;;8.37;;
65831;SDS011;52593;42.648;23.332;2023-06-22T00:47:01;17.23;;;8.70;;
65831;SDS011;52593;42.648;23.332;2023-06-22T00:49:27;18.27;;;8.68;;
65831;SDS011;52593;42.648;23.332;2023-06-22T00:51:53;16.48;;;7.68;;
65831;SDS011;52593;42.648;23.332;2023-06-22T00:54:19;14.77;;;8.75;;
65831;SDS011;52593;42.648;23.332;2023-06-22T00:56:50;17.80;;;8.40;;
65831;SDS011;52593;42.648;23.332;2023-06-22T00:59:19;14.85;;;8.43;;
65831;SDS011;52593;42.648;23.332;2023-06-22T01:01:45;13.85;;;7.50;;
65831;SDS011;52593;42.648;23.332;2023-06-22T01:04:10;14.40;;;8.07;;
65831;SDS011;52593;42.648;23.332;2023-06-22T01:06:38;15.95;;;8.30;;
65831;SDS011;52593;42.648;23.332;2023-06-22T01:09:13;14.85;;;8.40;;
65831;SDS011;52593;42.648;23.332;2023-06-22T01:11:48;14.52;;;8.30;;
65831;SDS011;52593;42.648;23.332;2023-06-22T01:17:29;14.20;;;7.40;;
65831;SDS011;52593;42.648;23.332;2023-06-22T01:19:57;13.02;;;7.40;;
65831;SDS011;52593;42.648;23.332;2023-06-22T01:22:27;13.32;;;7.05;;
65831;SDS011;52593;42.648;23.332;2023-06-22T01:25:12;12.13;;;7.38;;
65831;SDS011;52593;42.648;23.332;2023-06-22T01:28:05;12.53;;;7.20;;
65831;SDS011;52593;42.648;23.332;2023-06-22T01:30:45;13.18;;;7.30;;
65831;SDS011;52593;42.648;23.332;2023-06-22T01:33:13;12.95;;;7.43;;
65831;SDS011;52593;42.648;23.332;2023-06-22T01:35:41;12.82;;;7.38;;
65831;SDS011;52593;42.648;23.332;2023-06-22T01:38:07;13.38;;;7.70;;
65831;SDS011;52593;42.648;23.332;2023-06-22T01:40:33;14.33;;;7.83;;
65831;SDS011;52593;42.648;23.332;2023-06-22T01:43:00;15.02;;;8.40;;
65831;SDS011;52593;42.648;23.332;2023-06-22T01:45:27;13.60;;;7.78;;
65831;SDS011;52593;42.648;23.332;2023-06-22T01:47:53;15.93;;;8.20;;
65831;SDS011;52593;42.648;23.332;2023-06-22T01:50:19;13.02;;;7.97;;
65831;SDS011;52593;42.648;23.332;2023-06-22T01:52:45;14.65;;;8.70;;
65831;SDS011;52593;42.648;23.332;2023-06-22T01:55:10;15.10;;;8.37;;
65831;SDS011;52593;42.648;23.332;2023-06-22T01:57:36;13.83;;;8.07;;
65831;SDS011;52593;42.648;23.332;2023-06-22T02:02:32;13.25;;;8.10;;
65831;SDS011;52593;42.648;23.332;2023-06-22T02:05:08;14.18;;;8.18;;
65831;SDS011;52593;42.648;23.332;2023-06-22T02:07:39;15.02;;;8.43;;
65831;SDS011;52593;42.648;23.332;2023-06-22T02:10:10;17.02;;;8.60;;
65831;SDS011;52593;42.648;23.332;2023-06-22T02:12:39;14.90;;;8.37;;
65831;SDS011;52593;42.648;23.332;2023-06-22T02:15:08;14.80;;;8.10;;
65831;SDS011;52593;42.648;23.332;2023-06-22T02:17:35;13.18;;;8.05;;
65831;SDS011;52593;42.648;23.332;2023-06-22T02:20:02;14.10;;;7.70;;
65831;SDS011;52593;42.648;23.332;2023-06-22T02:22:33;16.98;;;8.80;;
65831;SDS011;52593;42.648;23.332;2023-06-22T02:24:58;14.52;;;8.73;;
65831;SDS011;52593;42.648;23.332;2023-06-22T02:27:24;14.67;;;8.57;;
65831;SDS011;52593;42.648;23.332;2023-06-22T02:29:49;14.33;;;8.60;;
65831;SDS011;52593;42.648;23.332;2023-06-22T02:32:14;15.00;;;8.33;;
65831;SDS011;52593;42.648;23.332;2023-06-22T02:34:42;16.70;;;8.07;;
65831;SDS011;52593;42.648;23.332;2023-06-22T02:37:07;13.83;;;8.30;;
65831;SDS011;52593;42.648;23.332;2023-06-22T02:39:35;14.30;;;8.38;;
65831;SDS011;52593;42.648;23.332;2023-06-22T02:42:01;15.23;;;8.38;;
65831;SDS011;52593;42.648;23.332;2023-06-22T02:44:27;16.23;;;8.13;;
65831;SDS011;52593;42.648;23.332;2023-06-22T02:46:52;15.80;;;8.30;;
65831;SDS011;52593;42.648;23.332;2023-06-22T02:49:19;15.85;;;9.07;;
65831;SDS011;52593;42.648;23.332;2023-06-22T02:51:45;17.33;;;8.30;;
65831;SDS011;52593;42.648;23.332;2023-06-22T02:54:12;17.42;;;8.48;;
65831;SDS011;52593;42.648;23.332;2023-06-22T02:56:37;14.37;;;8.00;;
65831;SDS011;52593;42.648;23.332;2023-06-22T02:59:03;16.17;;;9.37;;
65831;SDS011;52593;42.648;23.332;2023-06-22T03:01:28;15.93;;;8.50;;
65831;SDS011;52593;42.648;23.332;2023-06-22T03:03:58;16.63;;;8.82;;
65831;SDS011;52593;42.648;23.332;2023-06-22T03:06:23;16.02;;;8.40;;
65831;SDS011;52593;42.648;23.332;2023-06-22T03:08:54;15.00;;;8.60;;
65831;SDS011;52593;42.648;23.332;2023-06-22T03:11:23;16.57;;;8.97;;
65831;SDS011;52593;42.648;23.332;2023-06-22T03:13:49;14.05;;;8.35;;
65831;SDS011;52593;42.648;23.332;2023-06-22T03:16:17;15.30;;;8.67;;
65831;SDS011;52593;42.648;23.332;2023-06-22T03:18:42;16.33;;;8.73;;
65831;SDS011;52593;42.648;23.332;2023-06-22T03:21:08;17.37;;;8.87;;
65831;SDS011;52593;42.648;23.332;2023-06-22T03:23:33;16.00;;;8.67;;
65831;SDS011;52593;42.648;23.332;2023-06-22T03:25:58;14.82;;;8.57;;
65831;SDS011;52593;42.648;23.332;2023-06-22T03:28:24;16.20;;;8.63;;
65831;SDS011;52593;42.648;23.332;2023-06-22T03:30:49;17.67;;;8.93;;
65831;SDS011;52593;42.648;23.332;2023-06-22T03:33:14;16.97;;;9.53;;
65831;SDS011;52593;42.648;23.332;2023-06-22T03:35:40;18.57;;;8.80;;
65831;SDS011;52593;42.648;23.332;2023-06-22T03:38:05;20.13;;;9.30;;
65831;SDS011;52593;42.648;23.332;2023-06-22T03:40:30;15.90;;;9.03;;
65831;SDS011;52593;42.648;23.332;2023-06-22T03:42:56;15.80;;;8.23;;
65831;SDS011;52593;42.648;23.332;2023-06-22T03:45:21;16.93;;;9.00;;
65831;SDS011;52593;42.648;23.332;2023-06-22T03:47:47;16.60;;;9.77;;
65831;SDS011;52593;42.648;23.332;2023-06-22T03:50:31;18.13;;;8.73;;
65831;SDS011;52593;42.648;23.332;2023-06-22T03:52:56;21.80;;;9.32;;
65831;SDS011;52593;42.648;23.332;2023-06-22T03:55:21;18.70;;;10.03;;
65831;SDS011;52593;42.648;23.332;2023-06-22T03:57:47;17.50;;;9.73;;
65831;SDS011;52593;42.648;23.332;2023-06-22T04:00:12;19.60;;;10.37;;
65831;SDS011;52593;42.648;23.332;2023-06-22T04:02:38;14.80;;;9.23;;
65831;SDS011;52593;42.648;23.332;2023-06-22T04:05:04;15.73;;;9.57;;
65831;SDS011;52593;42.648;23.332;2023-06-22T04:07:30;15.30;;;8.57;;
65831;SDS011;52593;42.648;23.332;2023-06-22T04:09:56;18.30;;;10.05;;
65831;SDS011;52593;42.648;23.332;2023-06-22T04:12:21;18.87;;;9.60;;
65831;SDS011;52593;42.648;23.332;2023-06-22T04:14:46;20.23;;;10.13;;
65831;SDS011;52593;42.648;23.332;2023-06-22T04:17:12;15.93;;;9.87;;
65831;SDS011;52593;42.648;23.332;2023-06-22T04:19:39;16.58;;;10.07;;
65831;SDS011;52593;42.648;23.332;2023-06-22T04:22:04;16.90;;;10.13;;
65831;SDS011;52593;42.648;23.332;2023-06-22T04:24:32;20.83;;;10.07;;
65831;SDS011;52593;42.648;23.332;2023-06-22T04:26:58;18.33;;;9.93;;
65831;SDS011;52593;42.648;23.332;2023-06-22T04:29:25;19.63;;;10.00;;
65831;SDS011;52593;42.648;23.332;2023-06-22T04:31:53;18.98;;;10.90;;
65831;SDS011;52593;42.648;23.332;2023-06-22T04:34:21;18.30;;;10.73;;
65831;SDS011;52593;42.648;23.332;2023-06-22T04:36:46;17.40;;;10.43;;
65831;SDS011;52593;42.648;23.332;2023-06-22T04:39:11;21.67;;;11.20;;
65831;SDS011;52593;42.648;23.332;2023-06-22T04:41:37;19.47;;;10.23;;
65831;SDS011;52593;42.648;23.332;2023-06-22T04:46:38;23.17;;;11.00;;
65831;SDS011;52593;42.648;23.332;2023-06-22T04:49:07;19.65;;;10.30;;
65831;SDS011;52593;42.648;23.332;2023-06-22T04:51:41;20.40;;;10.77;;
65831;SDS011;52593;42.648;23.332;2023-06-22T04:54:07;21.30;;;11.15;;
65831;SDS011;52593;42.648;23.332;2023-06-22T04:56:34;20.30;;;11.38;;
65831;SDS011;52593;42.648;23.332;2023-06-22T04:59:00;20.52;;;11.38;;
65831;SDS011;52593;42.648;23.332;2023-06-22T05:01:26;20.50;;;11.52;;
65831;SDS011;52593;42.648;23.332;2023-06-22T05:03:52;26.27;;;11.63;;
65831;SDS011;52593;42.648;23.332;2023-06-22T05:06:23;18.70;;;10.30;;
65831;SDS011;52593;42.648;23.332;2023-06-22T05:08:53;18.25;;;10.23;;
65831;SDS011;52593;42.648;23.332;2023-06-22T05:11:22;26.03;;;11.13;;
65831;SDS011;52593;42.648;23.332;2023-06-22T05:13:50;20.80;;;11.95;;
65831;SDS011;52593;42.648;23.332;2023-06-22T05:16:16;28.97;;;14.97;;
65831;SDS011;52593;42.648;23.332;2023-06-22T05:18:41;27.30;;;14.55;;
65831;SDS011;52593;42.648;23.332;2023-06-22T05:21:08;20.90;;;12.27;;
65831;SDS011;52593;42.648;23.332;2023-06-22T05:23:34;23.33;;;11.88;;
65831;SDS011;52593;42.648;23.332;2023-06-22T05:25:59;20.07;;;10.37;;
65831;SDS011;52593;42.648;23.332;2023-06-22T05:28:24;21.03;;;10.67;;
65831;SDS011;52593;42.648;23.332;2023-06-22T05:30:50;21.27;;;10.07;;
65831;SDS011;52593;42.648;23.332;2023-06-22T05:33:16;19.63;;;10.53;;
65831;SDS011;52593;42.648;23.332;2023-06-22T05:35:41;18.37;;;10.90;;
65831;SDS011;52593;42.648;23.332;2023-06-22T05:38:06;20.13;;;10.60;;
65831;SDS011;52593;42.648;23.332;2023-06-22T05:40:32;21.63;;;10.67;;
65831;SDS011;52593;42.648;23.332;2023-06-22T05:42:57;26.63;;;11.43;;
65831;SDS011;52593;42.648;23.332;2023-06-22T05:45:25;20.00;;;11.35;;
65831;SDS011;52593;42.648;23.332;2023-06-22T05:47:51;21.53;;;11.20;;
65831;SDS011;52593;42.648;23.332;2023-06-22T05:50:16;20.13;;;11.00;;
65831;SDS011;52593;42.648;23.332;2023-06-22T05:52:41;20.67;;;11.43;;
65831;SDS011;52593;42.648;23.332;2023-06-22T05:55:07;18.17;;;10.93;;
65831;SDS011;52593;42.648;23.332;2023-06-22T05:57:33;21.63;;;11.30;;
65831;SDS011;52593;42.648;23.332;2023-06-22T05:59:58;20.43;;;11.03;;
65831;SDS011;52593;42.648;23.332;2023-06-22T06:02:23;19.70;;;11.13;;
65831;SDS011;52593;42.648;23.332;2023-06-22T06:04:50;20.63;;;11.02;;
65831;SDS011;52593;42.648;23.332;2023-06-22T06:07:17;18.58;;;10.73;;
65831;SDS011;52593;42.648;23.332;2023-06-22T06:09:43;21.00;;;11.37;;
65831;SDS011;52593;42.648;23.332;2023-06-22T06:12:08;19.08;;;10.75;;
65831;SDS011;52593;42.648;23.332;2023-06-22T06:14:34;19.50;;;10.67;;
65831;SDS011;52593;42.648;23.332;2023-06-22T06:16:59;18.37;;;11.10;;
65831;SDS011;52593;42.648;23.332;2023-06-22T06:19:24;17.97;;;10.30;;
65831;SDS011;52593;42.648;23.332;2023-06-22T06:21:50;17.80;;;11.10;;
65831;SDS011;52593;42.648;23.332;2023-06-22T06:24:16;16.88;;;9.80;;
65831;SDS011;52593;42.648;23.332;2023-06-22T06:26:41;19.73;;;9.97;;
65831;SDS011;52593;42.648;23.332;2023-06-22T06:29:06;18.65;;;10.63;;
65831;SDS011;52593;42.648;23.332;2023-06-22T06:31:32;19.20;;;10.03;;
65831;SDS011;52593;42.648;23.332;2023-06-22T06:33:58;17.20;;;10.75;;
65831;SDS011;52593;42.648;23.332;2023-06-22T06:36:23;17.13;;;9.77;;
65831;SDS011;52593;42.648;23.332;2023-06-22T06:38:49;17.70;;;10.00;;
65831;SDS011;52593;42.648;23.332;2023-06-22T06:41:15;17.47;;;8.97;;
65831;SDS011;52593;42.648;23.332;2023-06-22T06:43:41;16.25;;;9.52;;
65831;SDS011;52593;42.648;23.332;2023-06-22T06:46:08;18.90;;;9.15;;
65831;SDS011;52593;42.648;23.332;2023-06-22T06:48:33;19.87;;;11.03;;
65831;SDS011;52593;42.648;23.332;2023-06-22T06:50:59;16.55;;;9.65;;
65831;SDS011;52593;42.648;23.332;2023-06-22T06:53:24;17.27;;;9.20;;
65831;SDS011;52593;42.648;23.332;2023-06-22T06:55:51;19.73;;;10.27;;
65831;SDS011;52593;42.648;23.332;2023-06-22T06:58:16;17.65;;;10.07;;
65831;SDS011;52593;42.648;23.332;2023-06-22T07:00:42;17.37;;;10.20;;
65831;SDS011;52593;42.648;23.332;2023-06-22T07:03:08;17.23;;;9.25;;
65831;SDS011;52593;42.648;23.332;2023-06-22T07:05:34;15.97;;;10.00;;
65831;SDS011;52593;42.648;23.332;2023-06-22T07:08:00;17.17;;;9.85;;
65831;SDS011;52593;42.648;23.332;2023-06-22T07:10:26;16.27;;;9.82;;
65831;SDS011;52593;42.648;23.332;2023-06-22T07:12:51;15.17;;;9.50;;
65831;SDS011;52593;42.648;23.332;2023-06-22T07:15:16;17.30;;;10.60;;
65831;SDS011;52593;42.648;23.332;2023-06-22T07:17:42;18.13;;;10.63;;
65831;SDS011;52593;42.648;23.332;2023-06-22T07:20:07;19.73;;;10.10;;
65831;SDS011;52593;42.648;23.332;2023-06-22T07:22:39;16.15;;;10.68;;
65831;SDS011;52593;42.648;23.332;2023-06-22T07:25:07;18.53;;;10.80;;
65831;SDS011;52593;42.648;23.332;2023-06-22T07:27:39;17.23;;;10.63;;
65831;SDS011;52593;42.648;23.332;2023-06-22T07:30:08;18.67;;;12.05;;
65831;SDS011;52593;42.648;23.332;2023-06-22T07:32:34;16.42;;;10.30;;
65831;SDS011;52593;42.648;23.332;2023-06-22T07:35:00;19.97;;;10.63;;
65831;SDS011;52593;42.648;23.332;2023-06-22T07:37:26;19.50;;;12.35;;
65831;SDS011;52593;42.648;23.332;2023-06-22T07:39:53;19.13;;;12.98;;
65831;SDS011;52593;42.648;23.332;2023-06-22T07:42:23;16.85;;;9.88;;
65831;SDS011;52593;42.648;23.332;2023-06-22T07:44:48;18.47;;;10.17;;
65831;SDS011;52593;42.648;23.332;2023-06-22T07:47:15;17.48;;;10.80;;
65831;SDS011;52593;42.648;23.332;2023-06-22T07:49:43;18.88;;;10.48;;
65831;SDS011;52593;42.648;23.332;2023-06-22T07:52:08;17.13;;;9.77;;
65831;SDS011;52593;42.648;23.332;2023-06-22T07:54:34;17.70;;;10.73;;
65831;SDS011;52593;42.648;23.332;2023-06-22T07:56:59;17.73;;;9.90;;
65831;SDS011;52593;42.648;23.332;2023-06-22T07:59:25;18.33;;;10.33;;
65831;SDS011;52593;42.648;23.332;2023-06-22T08:01:50;21.10;;;10.18;;
65831;SDS011;52593;42.648;23.332;2023-06-22T08:04:16;20.57;;;11.13;;
65831;SDS011;52593;42.648;23.332;2023-06-22T08:06:41;18.20;;;9.57;;
65831;SDS011;52593;42.648;23.332;2023-06-22T08:09:07;17.07;;;10.17;;
65831;SDS011;52593;42.648;23.332;2023-06-22T08:11:32;17.42;;;9.98;;
65831;SDS011;52593;42.648;23.332;2023-06-22T08:13:58;19.07;;;10.73;;
65831;SDS011;52593;42.648;23.332;2023-06-22T08:16:24;17.38;;;10.43;;
65831;SDS011;52593;42.648;23.332;2023-06-22T08:18:50;17.33;;;10.73;;
65831;SDS011;52593;42.648;23.332;2023-06-22T08:21:15;16.57;;;9.67;;
65831;SDS011;52593;42.648;23.332;2023-06-22T08:23:40;17.33;;;10.63;;
65831;SDS011;52593;42.648;23.332;2023-06-22T08:26:06;19.73;;;10.43;;
65831;SDS011;52593;42.648;23.332;2023-06-22T08:28:31;23.53;;;14.60;;
65831;SDS011;52593;42.648;23.332;2023-06-22T08:30:57;20.42;;;11.10;;
65831;SDS011;52593;42.648;23.332;2023-06-22T08:33:23;15.17;;;10.27;;
65831;SDS011;52593;42.648;23.332;2023-06-22T08:35:53;17.77;;;10.90;;
65831;SDS011;52593;42.648;23.332;2023-06-22T08:38:19;18.45;;;10.48;;
65831;SDS011;52593;42.648;23.332;2023-06-22T08:40:45;19.03;;;9.97;;
65831;SDS011;52593;42.648;23.332;2023-06-22T08:43:10;21.43;;;10.63;;
65831;SDS011;52593;42.648;23.332;2023-06-22T08:45:35;18.63;;;10.60;;
65831;SDS011;52593;42.648;23.332;2023-06-22T08:48:01;14.48;;;9.95;;
65831;SDS011;52593;42.648;23.332;2023-06-22T08:50:26;16.23;;;9.93;;
65831;SDS011;52593;42.648;23.332;2023-06-22T08:52:51;19.03;;;10.43;;
65831;SDS011;52593;42.648;23.332;2023-06-22T08:55:17;16.90;;;9.80;;
65831;SDS011;52593;42.648;23.332;2023-06-22T08:57:42;15.98;;;9.60;;
65831;SDS011;52593;42.648;23.332;2023-06-22T09:00:09;20.77;;;11.25;;
65831;SDS011;52593;42.648;23.332;2023-06-22T09:02:45;17.93;;;12.00;;
65831;SDS011;52593;42.648;23.332;2023-06-22T09:05:12;17.88;;;10.23;;
65831;SDS011;52593;42.648;23.332;2023-06-22T09:07:38;16.48;;;10.48;;
65831;SDS011;52593;42.648;23.332;2023-06-22T09:10:03;13.43;;;9.10;;
65831;SDS011;52593;42.648;23.332;2023-06-22T09:12:30;12.70;;;8.68;;
65831;SDS011;52593;42.648;23.332;2023-06-22T09:14:57;13.13;;;8.52;;
65831;SDS011;52593;42.648;23.332;2023-06-22T09:17:25;11.63;;;8.15;;
65831;SDS011;52593;42.648;23.332;2023-06-22T09:19:50;12.17;;;8.23;;
65831;SDS011;52593;42.648;23.332;2023-06-22T09:22:16;12.50;;;8.13;;
65831;SDS011;52593;42.648;23.332;2023-06-22T09:24:41;28.23;;;19.57;;
65831;SDS011;52593;42.648;23.332;2023-06-22T09:27:07;14.73;;;9.10;;
65831;SDS011;52593;42.648;23.332;2023-06-22T09:29:32;14.60;;;9.40;;
65831;SDS011;52593;42.648;23.332;2023-06-22T09:31:59;13.27;;;8.65;;
65831;SDS011;52593;42.648;23.332;2023-06-22T09:34:27;12.40;;;8.53;;
65831;SDS011;52593;42.648;23.332;2023-06-22T09:36:52;13.18;;;8.63;;
65831;SDS011;52593;42.648;23.332;2023-06-22T09:39:18;12.53;;;8.07;;
65831;SDS011;52593;42.648;23.332;2023-06-22T09:41:43;12.63;;;8.10;;
65831;SDS011;52593;42.648;23.332;2023-06-22T09:44:09;11.00;;;7.80;;
65831;SDS011;52593;42.648;23.332;2023-06-22T09:46:34;13.10;;;8.50;;
65831;SDS011;52593;42.648;23.332;2023-06-22T09:49:00;10.43;;;7.97;;
65831;SDS011;52593;42.648;23.332;2023-06-22T09:51:25;12.43;;;7.67;;
65831;SDS011;52593;42.648;23.332;2023-06-22T09:53:51;12.30;;;8.33;;
65831;SDS011;52593;42.648;23.332;2023-06-22T09:56:16;12.60;;;8.30;;
65831;SDS011;52593;42.648;23.332;2023-06-22T09:58:42;12.80;;;8.43;;
65831;SDS011;52593;42.648;23.332;2023-06-22T10:01:08;11.90;;;8.05;;
65831;SDS011;52593;42.648;23.332;2023-06-22T10:03:35;12.63;;;8.98;;
65831;SDS011;52593;42.648;23.332;2023-06-22T10:06:00;12.93;;;9.47;;
65831;SDS011;52593;42.648;23.332;2023-06-22T10:08:26;12.48;;;8.02;;
65831;SDS011;52593;42.648;23.332;2023-06-22T10:10:51;11.83;;;8.43;;
65831;SDS011;52593;42.648;23.332;2023-06-22T10:13:17;11.90;;;8.57;;
65831;SDS011;52593;42.648;23.332;2023-06-22T10:15:43;12.70;;;8.65;;
65831;SDS011;52593;42.648;23.332;2023-06-22T10:18:14;13.15;;;8.63;;
65831;SDS011;52593;42.648;23.332;2023-06-22T10:20:40;13.60;;;9.35;;
65831;SDS011;52593;42.648;23.332;2023-06-22T10:23:05;13.33;;;8.60;;
65831;SDS011;52593;42.648;23.332;2023-06-22T10:25:31;12.63;;;9.20;;
65831;SDS011;52593;42.648;23.332;2023-06-22T10:27:56;12.03;;;8.83;;
65831;SDS011;52593;42.648;23.332;2023-06-22T10:30:22;20.83;;;15.35;;
65831;SDS011;52593;42.648;23.332;2023-06-22T10:32:48;15.68;;;11.23;;
65831;SDS011;52593;42.648;23.332;2023-06-22T10:35:14;11.52;;;8.70;;
65831;SDS011;52593;42.648;23.332;2023-06-22T10:37:41;11.17;;;8.13;;
65831;SDS011;52593;42.648;23.332;2023-06-22T10:40:08;12.75;;;8.88;;
65831;SDS011;52593;42.648;23.332;2023-06-22T10:42:34;16.70;;;8.90;;
65831;SDS011;52593;42.648;23.332;2023-06-22T10:44:59;13.40;;;9.17;;
65831;SDS011;52593;42.648;23.332;2023-06-22T10:47:25;11.43;;;8.03;;
65831;SDS011;52593;42.648;23.332;2023-06-22T10:49:50;11.17;;;7.90;;
65831;SDS011;52593;42.648;23.332;2023-06-22T10:52:15;15.23;;;10.70;;
65831;SDS011;52593;42.648;23.332;2023-06-22T10:54:41;19.00;;;12.83;;
65831;SDS011;52593;42.648;23.332;2023-06-22T10:57:06;12.10;;;9.17;;
65831;SDS011;52593;42.648;23.332;2023-06-22T10:59:32;16.17;;;10.85;;
65831;SDS011;52593;42.648;23.332;2023-06-22T11:01:57;16.37;;;9.73;;
65831;SDS011;52593;42.648;23.332;2023-06-22T11:04:23;15.70;;;9.70;;
65831;SDS011;52593;42.648;23.332;2023-06-22T11:06:49;12.07;;;9.17;;
65831;SDS011;52593;42.648;23.332;2023-06-22T11:09:15;12.63;;;8.93;;
65831;SDS011;52593;42.648;23.332;2023-06-22T11:11:46;12.57;;;8.93;;
65831;SDS011;52593;42.648;23.332;2023-06-22T11:14:12;11.50;;;8.85;;
65831;SDS011;52593;42.648;23.332;2023-06-22T11:16:38;16.97;;;9.40;;
65831;SDS011;52593;42.648;23.332;2023-06-22T11:19:04;13.02;;;9.18;;
65831;SDS011;52593;42.648;23.332;2023-06-22T11:21:30;13.13;;;9.07;;
65831;SDS011;52593;42.648;23.332;2023-06-22T11:23:56;14.55;;;9.30;;
65831;SDS011;52593;42.648;23.332;2023-06-22T11:26:22;12.93;;;9.52;;
65831;SDS011;52593;42.648;23.332;2023-06-22T11:28:48;13.30;;;9.90;;
65831;SDS011;52593;42.648;23.332;2023-06-22T11:31:13;13.82;;;9.40;;
65831;SDS011;52593;42.648;23.332;2023-06-22T11:33:39;15.90;;;9.30;;
65831;SDS011;52593;42.648;23.332;2023-06-22T11:36:04;13.07;;;9.32;;
65831;SDS011;52593;42.648;23.332;2023-06-22T11:38:30;15.40;;;8.87;;
65831;SDS011;52593;42.648;23.332;2023-06-22T11:40:57;14.37;;;8.73;;
65831;SDS011;52593;42.648;23.332;2023-06-22T11:43:23;14.25;;;9.55;;
65831;SDS011;52593;42.648;23.332;2023-06-22T11:45:48;12.07;;;8.97;;
65831;SDS011;52593;42.648;23.332;2023-06-22T11:48:14;12.05;;;9.27;;
65831;SDS011;52593;42.648;23.332;2023-06-22T11:50:39;15.83;;;9.73;;
65831;SDS011;52593;42.648;23.332;2023-06-22T11:53:05;15.07;;;9.60;;
65831;SDS011;52593;42.648;23.332;2023-06-22T11:55:30;15.30;;;9.63;;
65831;SDS011;52593;42.648;23.332;2023-06-22T11:57:56;12.10;;;8.38;;
65831;SDS011;52593;42.648;23.332;2023-06-22T12:00:25;13.50;;;8.73;;
65831;SDS011;52593;42.648;23.332;2023-06-22T12:02:51;13.48;;;8.50;;
65831;SDS011;52593;42.648;23.332;2023-06-22T12:05:18;13.38;;;8.52;;
65831;SDS011;52593;42.648;23.332;2023-06-22T12:07:46;12.95;;;9.38;;
65831;SDS011;52593;42.648;23.332;2023-06-22T12:10:11;14.10;;;9.07;;
65831;SDS011;52593;42.648;23.332;2023-06-22T12:12:37;15.40;;;8.97;;
65831;SDS011;52593;42.648;23.332;2023-06-22T12:15:02;15.83;;;9.53;;
65831;SDS011;52593;42.648;23.332;2023-06-22T12:17:29;13.15;;;9.52;;
65831;SDS011;52593;42.648;23.332;2023-06-22T12:19:55;12.82;;;8.77;;
65831;SDS011;52593;42.648;23.332;2023-06-22T12:22:20;13.27;;;9.03;;
65831;SDS011;52593;42.648;23.332;2023-06-22T12:24:46;14.60;;;8.65;;
65831;SDS011;52593;42.648;23.332;2023-06-22T12:27:11;12.47;;;8.93;;
65831;SDS011;52593;42.648;23.332;2023-06-22T12:29:36;15.17;;;9.13;;
65831;SDS011;52593;42.648;23.332;2023-06-22T12:32:02;15.77;;;9.47;;
65831;SDS011;52593;42.648;23.332;2023-06-22T12:34:27;15.40;;;9.30;;
65831;SDS011;52593;42.648;23.332;2023-06-22T12:36:53;14.93;;;9.60;;
65831;SDS011;52593;42.648;23.332;2023-06-22T12:39:20;12.50;;;7.55;;
65831;SDS011;52593;42.648;23.332;2023-06-22T12:41:45;16.48;;;9.35;;
65831;SDS011;52593;42.648;23.332;2023-06-22T12:44:11;17.67;;;8.50;;
65831;SDS011;52593;42.648;23.332;2023-06-22T12:46:36;14.67;;;7.83;;
65831;SDS011;52593;42.648;23.332;2023-06-22T12:49:03;16.23;;;8.50;;
65831;SDS011;52593;42.648;23.332;2023-06-22T12:51:29;15.18;;;8.90;;
65831;SDS011;52593;42.648;23.332;2023-06-22T12:53:55;13.90;;;7.82;;
65831;SDS011;52593;42.648;23.332;2023-06-22T12:56:21;12.77;;;8.33;;
65831;SDS011;52593;42.648;23.332;2023-06-22T12:58:46;12.77;;;8.70;;
65831;SDS011;52593;42.648;23.332;2023-06-22T13:01:12;12.80;;;8.00;;
65831;SDS011;52593;42.648;23.332;2023-06-22T13:03:38;12.10;;;7.68;;
65831;SDS011;52593;42.648;23.332;2023-06-22T13:06:03;12.77;;;7.70;;
65831;SDS011;52593;42.648;23.332;2023-06-22T13:08:29;28.77;;;10.10;;
65831;SDS011;52593;42.648;23.332;2023-06-22T13:10:55;18.07;;;8.73;;
65831;SDS011;52593;42.648;23.332;2023-06-22T13:13:23;21.02;;;10.02;;
65831;SDS011;52593;42.648;23.332;2023-06-22T13:15:49;18.45;;;9.95;;
65831;SDS011;52593;42.648;23.332;2023-06-22T13:18:15;18.33;;;9.40;;
65831;SDS011;52593;42.648;23.332;2023-06-22T13:20:41;16.47;;;9.43;;
65831;SDS011;52593;42.648;23.332;2023-06-22T13:23:06;14.57;;;9.40;;
65831;SDS011;52593;42.648;23.332;2023-06-22T13:25:31;15.03;;;8.93;;
65831;SDS011;52593;42.648;23.332;2023-06-22T13:27:57;14.75;;;8.60;;
65831;SDS011;52593;42.648;23.332;2023-06-22T13:30:22;13.70;;;8.20;;
65831;SDS011;52593;42.648;23.332;2023-06-22T13:32:48;16.07;;;9.10;;
65831;SDS011;52593;42.648;23.332;2023-06-22T13:35:13;15.43;;;9.27;;
65831;SDS011;52593;42.648;23.332;2023-06-22T13:37:39;17.48;;;9.75;;
65831;SDS011;52593;42.648;23.332;2023-06-22T13:40:05;18.77;;;10.13;;
65831;SDS011;52593;42.648;23.332;2023-06-22T13:42:32;16.25;;;9.82;;
65831;SDS011;52593;42.648;23.332;2023-06-22T13:44:57;17.27;;;9.77;;
65831;SDS011;52593;42.648;23.332;2023-06-22T13:47:23;17.23;;;9.37;;
65831;SDS011;52593;42.648;23.332;2023-06-22T13:49:48;14.70;;;9.05;;
65831;SDS011;52593;42.648;23.332;2023-06-22T13:52:14;14.37;;;9.07;;
65831;SDS011;52593;42.648;23.332;2023-06-22T13:54:39;15.30;;;9.00;;
65831;SDS011;52593;42.648;23.332;2023-06-22T13:57:05;16.83;;;9.67;;
65831;SDS011;52593;42.648;23.332;2023-06-22T13:59:31;16.20;;;9.77;;
65831;SDS011;52593;42.648;23.332;2023-06-22T14:01:56;19.10;;;10.10;;
65831;SDS011;52593;42.648;23.332;2023-06-22T14:04:22;19.43;;;12.30;;
65831;SDS011;52593;42.648;23.332;2023-06-22T14:06:48;18.33;;;10.57;;
65831;SDS011;52593;42.648;23.332;2023-06-22T14:09:13;20.67;;;13.07;;
65831;SDS011;52593;42.648;23.332;2023-06-22T14:11:39;22.00;;;12.38;;
65831;SDS011;52593;42.648;23.332;2023-06-22T14:14:04;18.70;;;10.47;;
65831;SDS011;52593;42.648;23.332;2023-06-22T14:16:29;18.77;;;11.10;;
65831;SDS011;52593;42.648;23.332;2023-06-22T14:18:56;15.27;;;9.50;;
65831;SDS011;52593;42.648;23.332;2023-06-22T14:21:22;16.03;;;9.50;;